Time;durP1;ratioP1;P1;durP2;ratioP2;P2;SDS_P1;SDS_P2;PMS_P1;PMS_P2;Temp;Humidity;BMP_temperature;BMP_pressure;BME280_temperature;BME280_humidity;BME280_pressure;Samples;Min_cycle;Max_cycle;Signal;HPM_P1;HPM_P2
2022/09/07 00:00:52;;;;;;;8.40;7.70;;;;;;;;;;5004895;28;20041;-70
2022/09/07 00:03:18;;;;;;;9.32;7.25;;;;;;;;;;5000002;28;20497;-71
2022/09/07 00:05:46;;;;;;;8.32;7.68;;;;;;;;;;5006017;28;20034;-71
2022/09/07 00:08:13;;;;;;;8.07;7.38;;;;;;;;;;5004120;28;20030;-70
2022/09/07 00:10:39;;;;;;;9.13;8.13;;;;;;;;;;5002426;28;20042;-70
2022/09/07 00:13:05;;;;;;;8.85;7.80;;;;;;;;;;5006228;28;20029;-70
2022/09/07 00:15:31;;;;;;;9.07;8.23;;;;;;;;;;5005855;28;20036;-70
2022/09/07 00:17:57;;;;;;;9.15;8.30;;;;;;;;;;5007994;28;20087;-69
2022/09/07 00:20:23;;;;;;;8.77;7.88;;;;;;;;;;5001521;28;20705;-70
2022/09/07 00:22:48;;;;;;;9.05;8.15;;;;;;;;;;5002525;28;20049;-70
2022/09/07 00:25:14;;;;;;;9.48;8.57;;;;;;;;;;5005807;28;20567;-70
2022/09/07 00:27:40;;;;;;;8.85;8.05;;;;;;;;;;5002396;28;20052;-70
2022/09/07 00:30:06;;;;;;;12.63;10.52;;;;;;;;;;5004581;28;20511;-70
2022/09/07 00:32:32;;;;;;;8.48;7.78;;;;;;;;;;5003629;28;20087;-70
2022/09/07 00:34:58;;;;;;;8.52;7.72;;;;;;;;;;5006995;28;20113;-71
2022/09/07 00:37:23;;;;;;;8.80;8.02;;;;;;;;;;5003827;28;20041;-71
2022/09/07 00:39:49;;;;;;;8.70;7.90;;;;;;;;;;5004430;28;20061;-71
2022/09/07 00:42:19;;;;;;;9.23;7.82;;;;;;;;;;5007834;28;20034;-70
2022/09/07 00:45:13;;;;;;;10.13;8.13;;;;;;;;;;5005654;28;20038;-70
2022/09/07 00:47:45;;;;;;;8.40;7.68;;;;;;;;;;5004110;28;20716;-70
2022/09/07 00:50:46;;;;;;;8.77;7.88;;;;;;;;;;5010376;28;20108;-70
2022/09/07 00:53:17;;;;;;;9.98;8.15;;;;;;;;;;5007976;28;20038;-70
2022/09/07 00:55:45;;;;;;;11.18;8.27;;;;;;;;;;5008380;28;20129;-72
2022/09/07 00:58:11;;;;;;;9.45;8.50;;;;;;;;;;5009196;28;20033;-72
2022/09/07 01:00:39;;;;;;;9.30;8.35;;;;;;;;;;5010810;28;20037;-70
2022/09/07 01:03:05;;;;;;;10.18;7.63;;;;;;;;;;5009672;28;20117;-70
2022/09/07 01:05:44;;;;;;;9.68;8.65;;;;;;;;;;5009525;28;20101;-71
2022/09/07 01:08:11;;;;;;;9.90;8.95;;;;;;;;;;5007888;28;20520;-68
2022/09/07 01:10:38;;;;;;;10.15;9.15;;;;;;;;;;5009580;28;20036;-71
2022/09/07 01:13:04;;;;;;;9.95;9.00;;;;;;;;;;5013356;28;20068;-70
2022/09/07 01:16:11;;;;;;;10.43;9.25;;;;;;;;;;5006514;28;20061;-71
2022/09/07 01:19:01;;;;;;;8.48;7.78;;;;;;;;;;5028219;28;20029;-71
2022/09/07 01:21:33;;;;;;;9.10;8.27;;;;;;;;;;4986232;28;20053;-71
2022/09/07 01:24:44;;;;;;;8.77;8.10;;;;;;;;;;5007349;28;20034;-71
2022/09/07 01:27:45;;;;;;;8.63;7.93;;;;;;;;;;5010579;28;20029;-70
2022/09/07 01:30:13;;;;;;;9.40;8.60;;;;;;;;;;4996733;28;20037;-70
2022/09/07 01:33:05;;;;;;;9.20;8.10;;;;;;;;;;5010334;28;20034;-70
2022/09/07 01:35:40;;;;;;;8.55;7.60;;;;;;;;;;5005432;28;20514;-71
2022/09/07 01:38:33;;;;;;;8.52;7.75;;;;;;;;;;5007737;28;20108;-71
2022/09/07 01:41:17;;;;;;;8.07;7.32;;;;;;;;;;5004098;28;20436;-70
2022/09/07 01:44:14;;;;;;;9.27;7.32;;;;;;;;;;5011582;28;20099;-70
2022/09/07 01:46:56;;;;;;;8.90;8.10;;;;;;;;;;5012224;28;20029;-70
2022/09/07 01:49:25;;;;;;;8.52;7.35;;;;;;;;;;5007352;28;20034;-70
2022/09/07 01:51:57;;;;;;;8.55;7.88;;;;;;;;;;5008610;28;20768;-71
2022/09/07 01:54:33;;;;;;;9.02;8.23;;;;;;;;;;5011069;28;20092;-69
2022/09/07 01:57:12;;;;;;;9.02;8.15;;;;;;;;;;5006359;28;20061;-68
2022/09/07 01:59:57;;;;;;;9.15;8.13;;;;;;;;;;5007548;28;20034;-71
2022/09/07 02:02:29;;;;;;;10.65;8.38;;;;;;;;;;5011321;28;20501;-70
2022/09/07 02:05:07;;;;;;;9.95;8.95;;;;;;;;;;5008399;28;20505;-70
2022/09/07 02:07:41;;;;;;;9.17;8.27;;;;;;;;;;4995221;28;20113;-70
2022/09/07 02:10:11;;;;;;;8.95;8.23;;;;;;;;;;5007610;28;20365;-70
2022/09/07 02:13:08;;;;;;;8.35;7.78;;;;;;;;;;5008345;28;20074;-71
2022/09/07 02:15:45;;;;;;;8.95;8.05;;;;;;;;;;5007083;28;20057;-71
2022/09/07 02:18:15;;;;;;;8.93;8.13;;;;;;;;;;5007038;28;20091;-70
2022/09/07 02:20:52;;;;;;;8.52;7.90;;;;;;;;;;5007973;28;20512;-71
2022/09/07 02:23:21;;;;;;;10.25;8.00;;;;;;;;;;5007569;28;20049;-70
2022/09/07 02:25:55;;;;;;;9.20;8.20;;;;;;;;;;5004383;28;20083;-70
2022/09/07 02:28:29;;;;;;;8.60;7.80;;;;;;;;;;5009710;28;20036;-70
2022/09/07 02:30:54;;;;;;;8.23;7.30;;;;;;;;;;5009855;28;20030;-70
2022/09/07 02:33:20;;;;;;;11.73;8.10;;;;;;;;;;5006373;28;20033;-70
2022/09/07 02:35:46;;;;;;;8.88;8.00;;;;;;;;;;5007895;28;20091;-68
2022/09/07 02:38:12;;;;;;;8.13;7.50;;;;;;;;;;5009532;28;20109;-70
2022/09/07 02:40:38;;;;;;;9.43;8.32;;;;;;;;;;5007225;28;20687;-70
2022/09/07 02:43:07;;;;;;;8.90;8.00;;;;;;;;;;5003941;28;20080;-70
2022/09/07 02:45:45;;;;;;;8.60;8.00;;;;;;;;;;5007527;28;20048;-70
2022/09/07 02:48:20;;;;;;;12.15;8.20;;;;;;;;;;5005944;28;20034;-70
2022/09/07 02:51:04;;;;;;;9.00;7.82;;;;;;;;;;5023124;28;20037;-70
2022/09/07 02:53:45;;;;;;;8.80;7.90;;;;;;;;;;5011135;28;20501;-70
2022/09/07 02:56:13;;;;;;;9.57;8.32;;;;;;;;;;5003758;28;20129;-70
2022/09/07 02:58:44;;;;;;;8.82;7.97;;;;;;;;;;5006188;28;20117;-70
2022/09/07 03:01:10;;;;;;;8.20;7.43;;;;;;;;;;5007871;28;20033;-70
2022/09/07 03:04:05;;;;;;;8.93;7.97;;;;;;;;;;5008387;28;20038;-70
2022/09/07 03:06:46;;;;;;;10.80;8.18;;;;;;;;;;5009663;28;20021;-70
2022/09/07 03:09:19;;;;;;;11.38;8.90;;;;;;;;;;5010609;28;20516;-70
2022/09/07 03:11:46;;;;;;;10.93;9.27;;;;;;;;;;5007437;28;20038;-70
2022/09/07 03:14:15;;;;;;;9.95;9.00;;;;;;;;;;5007905;28;20109;-70
2022/09/07 03:16:41;;;;;;;10.70;8.90;;;;;;;;;;5009197;28;20141;-70
2022/09/07 03:19:07;;;;;;;9.18;8.00;;;;;;;;;;5008958;28;20026;-70
2022/09/07 03:21:34;;;;;;;9.25;8.23;;;;;;;;;;5005991;28;20481;-70
2022/09/07 03:24:00;;;;;;;9.35;8.60;;;;;;;;;;5007182;28;20132;-70
2022/09/07 03:26:26;;;;;;;11.95;9.15;;;;;;;;;;5010088;28;20048;-70
2022/09/07 03:28:52;;;;;;;22.05;10.90;;;;;;;;;;5006767;28;20116;-71
2022/09/07 03:31:19;;;;;;;16.40;10.68;;;;;;;;;;5003593;28;20030;-70
2022/09/07 03:33:44;;;;;;;21.42;11.65;;;;;;;;;;5007395;28;20029;-70
2022/09/07 03:36:10;;;;;;;19.83;11.57;;;;;;;;;;5004871;28;20160;-70
2022/09/07 03:38:36;;;;;;;16.35;11.60;;;;;;;;;;5008969;28;20127;-70
2022/09/07 03:41:04;;;;;;;11.75;10.55;;;;;;;;;;5007284;28;20029;-69
2022/09/07 03:43:30;;;;;;;14.90;10.57;;;;;;;;;;5002617;28;20034;-70
2022/09/07 03:46:01;;;;;;;13.65;10.40;;;;;;;;;;5006098;28;20029;-70
2022/09/07 03:48:29;;;;;;;13.82;10.75;;;;;;;;;;5004395;28;20034;-70
2022/09/07 03:51:00;;;;;;;12.50;11.15;;;;;;;;;;5008228;28;20053;-69
2022/09/07 03:53:28;;;;;;;11.05;10.05;;;;;;;;;;5001925;28;20030;-69
2022/09/07 03:56:06;;;;;;;11.93;10.77;;;;;;;;;;5009621;28;20378;-69
2022/09/07 03:58:33;;;;;;;16.35;11.30;;;;;;;;;;5006689;28;20116;-70
2022/09/07 04:01:03;;;;;;;13.30;10.63;;;;;;;;;;5004812;28;20328;-68
2022/09/07 04:03:29;;;;;;;14.45;10.52;;;;;;;;;;5004511;28;20030;-69
2022/09/07 04:05:57;;;;;;;10.48;9.48;;;;;;;;;;4999354;28;20489;-69
2022/09/07 04:08:32;;;;;;;10.65;9.35;;;;;;;;;;5002620;28;20038;-70
2022/09/07 04:11:02;;;;;;;10.65;9.65;;;;;;;;;;5006156;28;20614;-69
2022/09/07 04:13:29;;;;;;;13.18;9.98;;;;;;;;;;5005904;28;20025;-69
2022/09/07 04:15:55;;;;;;;11.45;10.38;;;;;;;;;;4999806;28;20029;-70
2022/09/07 04:18:22;;;;;;;12.50;10.15;;;;;;;;;;5006224;28;20048;-69
2022/09/07 04:20:51;;;;;;;15.25;9.93;;;;;;;;;;5007802;28;20041;-70
2022/09/07 04:23:18;;;;;;;12.90;10.88;;;;;;;;;;5003892;28;20037;-69
2022/09/07 04:25:51;;;;;;;11.38;10.27;;;;;;;;;;5004454;28;20042;-70
2022/09/07 04:28:18;;;;;;;13.70;10.20;;;;;;;;;;5007308;28;20496;-69
2022/09/07 04:30:44;;;;;;;11.57;10.40;;;;;;;;;;5010426;28;20030;-70
2022/09/07 04:33:10;;;;;;;11.02;9.80;;;;;;;;;;5007346;28;20401;-70
2022/09/07 04:35:37;;;;;;;11.00;9.95;;;;;;;;;;5010407;28;20043;-70
2022/09/07 04:38:03;;;;;;;11.60;10.38;;;;;;;;;;5012364;28;20120;-70
2022/09/07 04:40:29;;;;;;;11.98;10.68;;;;;;;;;;5007859;28;20493;-70
2022/09/07 04:42:55;;;;;;;12.15;10.98;;;;;;;;;;5008933;28;20049;-70
2022/09/07 04:45:20;;;;;;;12.00;10.82;;;;;;;;;;5008735;28;20040;-70
2022/09/07 04:47:49;;;;;;;13.23;10.60;;;;;;;;;;5010692;28;20108;-70
2022/09/07 04:50:16;;;;;;;11.63;10.43;;;;;;;;;;5009017;28;20029;-70
2022/09/07 04:52:45;;;;;;;11.63;10.48;;;;;;;;;;5012234;28;20041;-70
2022/09/07 04:55:11;;;;;;;;;;;;;;;;;;5012999;28;20092;-70
2022/09/07 04:57:37;;;;;;;11.45;10.35;;;;;;;;;;5011965;28;19917;-70
2022/09/07 05:00:09;;;;;;;11.38;10.18;;;;;;;;;;5006705;28;20034;-70
2022/09/07 05:02:35;;;;;;;11.00;9.90;;;;;;;;;;5011102;28;20040;-69
2022/09/07 05:05:00;;;;;;;10.63;9.73;;;;;;;;;;5011771;28;20037;-70
2022/09/07 05:07:26;;;;;;;12.73;10.05;;;;;;;;;;5008641;28;20022;-69
2022/09/07 05:09:51;;;;;;;16.45;10.77;;;;;;;;;;5008778;28;20059;-70
2022/09/07 05:12:17;;;;;;;12.98;10.00;;;;;;;;;;5011178;28;20037;-69
2022/09/07 05:14:43;;;;;;;10.60;9.57;;;;;;;;;;5009213;28;20033;-70
2022/09/07 05:17:09;;;;;;;10.20;9.40;;;;;;;;;;5007108;28;20085;-70
2022/09/07 05:19:34;;;;;;;11.23;10.27;;;;;;;;;;5008006;28;20045;-70
2022/09/07 05:22:00;;;;;;;13.02;9.82;;;;;;;;;;5010431;28;20030;-69
2022/09/07 05:24:26;;;;;;;11.90;10.82;;;;;;;;;;5011310;28;20029;-70
2022/09/07 05:26:52;;;;;;;12.93;10.88;;;;;;;;;;5006584;28;20563;-70
2022/09/07 05:29:18;;;;;;;12.70;11.55;;;;;;;;;;5009642;28;20132;-70
2022/09/07 05:31:44;;;;;;;15.98;11.70;;;;;;;;;;5010954;28;20108;-70
2022/09/07 05:34:10;;;;;;;13.02;10.93;;;;;;;;;;5006493;28;20277;-70
2022/09/07 05:36:36;;;;;;;11.43;10.30;;;;;;;;;;5008651;28;20096;-69
2022/09/07 05:39:04;;;;;;;12.20;11.10;;;;;;;;;;5008953;28;20289;-70
2022/09/07 05:41:29;;;;;;;12.27;10.98;;;;;;;;;;5002246;28;20038;-70
2022/09/07 05:43:55;;;;;;;14.50;11.02;;;;;;;;;;4998248;28;20041;-70
2022/09/07 05:46:21;;;;;;;17.42;11.57;;;;;;;;;;5003512;28;20084;-72
2022/09/07 05:48:46;;;;;;;14.77;11.00;;;;;;;;;;5009237;28;20377;-71
2022/09/07 05:51:12;;;;;;;11.63;10.25;;;;;;;;;;5010579;28;20098;-71
2022/09/07 05:53:41;;;;;;;14.68;10.18;;;;;;;;;;5007683;28;20038;-70
2022/09/07 05:56:08;;;;;;;11.73;10.82;;;;;;;;;;5014214;28;20033;-71
2022/09/07 05:58:34;;;;;;;12.85;11.55;;;;;;;;;;5009074;28;20401;-71
2022/09/07 06:01:09;;;;;;;12.68;11.48;;;;;;;;;;5013783;28;20042;-73
2022/09/07 06:03:36;;;;;;;12.55;11.35;;;;;;;;;;5006861;28;20038;-71
2022/09/07 06:06:14;;;;;;;12.40;11.18;;;;;;;;;;5009736;28;20034;-71
2022/09/07 06:08:46;;;;;;;13.60;12.20;;;;;;;;;;5008899;28;20547;-72
2022/09/07 06:11:15;;;;;;;17.65;10.93;;;;;;;;;;5007505;28;20097;-70
2022/09/07 06:13:41;;;;;;;11.05;10.02;;;;;;;;;;5010372;28;20041;-71
2022/09/07 06:16:08;;;;;;;10.43;9.38;;;;;;;;;;5008924;28;20516;-71
2022/09/07 06:18:36;;;;;;;15.60;10.45;;;;;;;;;;5005118;28;20120;-71
2022/09/07 06:21:03;;;;;;;15.80;11.02;;;;;;;;;;5008599;28;20437;-71
2022/09/07 06:23:33;;;;;;;12.77;11.07;;;;;;;;;;5005297;28;20041;-71
2022/09/07 06:25:59;;;;;;;17.65;11.95;;;;;;;;;;5005377;28;20446;-71
2022/09/07 06:28:33;;;;;;;17.20;11.13;;;;;;;;;;5005293;28;20161;-70
2022/09/07 06:31:00;;;;;;;14.82;10.93;;;;;;;;;;5009190;28;20096;-70
2022/09/07 06:33:26;;;;;;;11.85;10.75;;;;;;;;;;5012049;28;20034;-70
2022/09/07 06:36:03;;;;;;;12.10;10.82;;;;;;;;;;5008063;28;20077;-69
2022/09/07 06:38:35;;;;;;;12.98;11.25;;;;;;;;;;5008313;28;20040;-71
2022/09/07 06:41:03;;;;;;;13.10;11.40;;;;;;;;;;5011644;28;20034;-72
2022/09/07 06:43:29;;;;;;;12.93;11.27;;;;;;;;;;5004823;28;20068;-71
2022/09/07 06:45:55;;;;;;;12.32;10.50;;;;;;;;;;5009164;28;20029;-71
2022/09/07 06:48:21;;;;;;;12.38;11.10;;;;;;;;;;5010008;28;20040;-70
2022/09/07 06:50:57;;;;;;;12.35;10.90;;;;;;;;;;5008377;28;20022;-71
2022/09/07 06:53:24;;;;;;;13.88;10.70;;;;;;;;;;5010045;28;20057;-72
2022/09/07 06:55:50;;;;;;;13.00;9.90;;;;;;;;;;5008775;28;20038;-72
2022/09/07 06:58:16;;;;;;;10.38;9.35;;;;;;;;;;5008832;28;20516;-72
2022/09/07 07:00:41;;;;;;;11.48;9.68;;;;;;;;;;5006734;28;20048;-72
2022/09/07 07:03:07;;;;;;;10.55;9.48;;;;;;;;;;5008623;28;20040;-72
2022/09/07 07:05:32;;;;;;;10.52;9.52;;;;;;;;;;5009582;28;20460;-72
2022/09/07 07:07:58;;;;;;;11.30;10.23;;;;;;;;;;5008333;28;20041;-72
2022/09/07 07:10:24;;;;;;;15.02;10.18;;;;;;;;;;5006231;28;20469;-71
2022/09/07 07:12:51;;;;;;;13.40;10.48;;;;;;;;;;5009958;28;20048;-71
2022/09/07 07:15:18;;;;;;;11.70;10.43;;;;;;;;;;5009925;28;20048;-72
2022/09/07 07:17:43;;;;;;;11.60;10.43;;;;;;;;;;5009429;28;20033;-71
2022/09/07 07:20:09;;;;;;;10.90;9.98;;;;;;;;;;5006256;28;20274;-71
2022/09/07 07:22:35;;;;;;;19.42;10.85;;;;;;;;;;5007595;28;20720;-72
2022/09/07 07:25:00;;;;;;;11.73;10.43;;;;;;;;;;5006475;28;20105;-71
2022/09/07 07:27:30;;;;;;;11.00;9.82;;;;;;;;;;5007696;28;20120;-70
2022/09/07 07:29:55;;;;;;;12.65;9.57;;;;;;;;;;5009765;28;20022;-72
2022/09/07 07:32:21;;;;;;;12.50;10.07;;;;;;;;;;5004612;28;20486;-73
2022/09/07 07:34:47;;;;;;;10.55;9.65;;;;;;;;;;5009877;28;20041;-73
2022/09/07 07:37:13;;;;;;;10.50;9.50;;;;;;;;;;5012564;28;20036;-72
2022/09/07 07:39:41;;;;;;;10.50;9.55;;;;;;;;;;5010352;28;20408;-72
2022/09/07 07:42:06;;;;;;;10.60;9.48;;;;;;;;;;5001476;28;20493;-71
2022/09/07 07:44:32;;;;;;;10.63;9.00;;;;;;;;;;5009074;28;20036;-72
2022/09/07 07:46:58;;;;;;;11.50;8.80;;;;;;;;;;5008215;28;20113;-73
2022/09/07 07:49:24;;;;;;;9.27;8.50;;;;;;;;;;5007207;28;20092;-72
2022/09/07 07:51:53;;;;;;;9.73;8.73;;;;;;;;;;5007116;28;20048;-72
2022/09/07 07:54:19;;;;;;;11.10;8.63;;;;;;;;;;5009766;28;20034;-72
2022/09/07 07:56:44;;;;;;;10.02;8.55;;;;;;;;;;5009707;28;20469;-73
2022/09/07 07:59:10;;;;;;;9.15;8.30;;;;;;;;;;5006670;28;20033;-73
2022/09/07 08:01:36;;;;;;;9.65;8.88;;;;;;;;;;5007176;28;20421;-73
2022/09/07 08:04:02;;;;;;;12.45;8.55;;;;;;;;;;5007782;28;20037;-73
2022/09/07 08:06:28;;;;;;;9.63;8.70;;;;;;;;;;5005657;28;20120;-73
2022/09/07 08:08:54;;;;;;;10.43;8.18;;;;;;;;;;5011049;28;20033;-72
2022/09/07 08:11:21;;;;;;;10.63;8.65;;;;;;;;;;5008882;28;20046;-72
2022/09/07 08:13:49;;;;;;;8.85;7.85;;;;;;;;;;5007014;28;20494;-72
2022/09/07 08:16:16;;;;;;;9.95;8.05;;;;;;;;;;5006629;28;20042;-71
2022/09/07 08:18:42;;;;;;;11.60;7.97;;;;;;;;;;5008326;28;20033;-72
2022/09/07 08:21:13;;;;;;;14.02;8.05;;;;;;;;;;5009175;28;20040;-72
2022/09/07 08:23:40;;;;;;;11.32;8.00;;;;;;;;;;5003868;28;20056;-72
2022/09/07 08:26:07;;;;;;;11.82;8.40;;;;;;;;;;5007197;28;20413;-72
2022/09/07 08:28:36;;;;;;;10.52;7.97;;;;;;;;;;5006988;28;20034;-72
2022/09/07 08:31:07;;;;;;;9.85;7.78;;;;;;;;;;5004325;28;20422;-72
2022/09/07 08:33:37;;;;;;;8.70;7.35;;;;;;;;;;5007391;28;20033;-73
2022/09/07 08:36:09;;;;;;;10.82;7.75;;;;;;;;;;5006916;28;20049;-72
2022/09/07 08:38:36;;;;;;;12.07;8.13;;;;;;;;;;5005150;28;20037;-72
2022/09/07 08:41:22;;;;;;;8.93;8.02;;;;;;;;;;5009182;28;20026;-72
2022/09/07 08:43:57;;;;;;;12.40;7.45;;;;;;;;;;5010792;28;20033;-72
2022/09/07 08:46:33;;;;;;;9.23;7.45;;;;;;;;;;5004892;28;20060;-74
2022/09/07 08:49:02;;;;;;;11.43;7.97;;;;;;;;;;5008462;28;20037;-73
2022/09/07 08:51:37;;;;;;;9.75;7.70;;;;;;;;;;5011471;28;20482;-72
2022/09/07 08:54:04;;;;;;;11.20;7.38;;;;;;;;;;5007577;28;20033;-71
2022/09/07 08:56:34;;;;;;;9.35;7.57;;;;;;;;;;5008624;28;20044;-71
2022/09/07 08:59:14;;;;;;;9.82;7.38;;;;;;;;;;5004597;28;20116;-72
2022/09/07 09:01:41;;;;;;;7.60;6.90;;;;;;;;;;5008616;28;20038;-71
2022/09/07 09:04:20;;;;;;;9.98;7.47;;;;;;;;;;5008717;28;20120;-72
2022/09/07 09:07:03;;;;;;;16.52;8.30;;;;;;;;;;5009516;28;20042;-71
2022/09/07 09:09:51;;;;;;;13.15;7.50;;;;;;;;;;5014554;28;20034;-71
2022/09/07 09:12:27;;;;;;;14.63;7.78;;;;;;;;;;5000807;28;20026;-69
2022/09/07 09:15:17;;;;;;;12.13;7.80;;;;;;;;;;5004672;28;20050;-71
2022/09/07 09:18:30;;;;;;;8.27;7.47;;;;;;;;;;5014356;28;20029;-72
2022/09/07 09:20:57;;;;;;;11.65;7.70;;;;;;;;;;4947894;28;20158;-72
2022/09/07 09:23:32;;;;;;;10.50;7.53;;;;;;;;;;5002997;28;20579;-72
2022/09/07 09:26:13;;;;;;;10.07;7.45;;;;;;;;;;5017819;28;20034;-71
2022/09/07 09:28:39;;;;;;;10.23;7.53;;;;;;;;;;5014348;28;20037;-71
2022/09/07 09:31:05;;;;;;;9.93;7.43;;;;;;;;;;5003478;28;20034;-72
2022/09/07 09:33:30;;;;;;;9.20;7.60;;;;;;;;;;5010006;28;20113;-71
2022/09/07 09:35:59;;;;;;;8.68;7.50;;;;;;;;;;5009692;28;20045;-71
2022/09/07 09:38:38;;;;;;;9.40;7.40;;;;;;;;;;5005863;28;20294;-71
2022/09/07 09:41:06;;;;;;;10.48;7.68;;;;;;;;;;5008290;28;20670;-71
2022/09/07 09:43:53;;;;;;;7.40;6.82;;;;;;;;;;5007524;28;20056;-72
2022/09/07 09:46:32;;;;;;;12.23;6.95;;;;;;;;;;5001984;28;20436;-72
2022/09/07 09:49:03;;;;;;;9.20;7.30;;;;;;;;;;5010966;28;20116;-72
2022/09/07 09:51:33;;;;;;;8.25;7.47;;;;;;;;;;5012276;28;20029;-72
2022/09/07 09:54:04;;;;;;;9.15;7.20;;;;;;;;;;5009115;28;20112;-72
2022/09/07 09:56:44;;;;;;;8.10;6.75;;;;;;;;;;5009452;28;20040;-72
2022/09/07 09:59:16;;;;;;;7.47;6.72;;;;;;;;;;5002876;28;20520;-73
2022/09/07 10:01:45;;;;;;;10.88;6.80;;;;;;;;;;5008897;28;20041;-71
2022/09/07 10:04:24;;;;;;;13.00;6.60;;;;;;;;;;5011039;28;20459;-70
2022/09/07 10:07:09;;;;;;;8.95;6.60;;;;;;;;;;5009871;28;20330;-72
2022/09/07 10:09:41;;;;;;;7.55;6.95;;;;;;;;;;5009582;28;20061;-72
2022/09/07 10:12:30;;;;;;;9.52;6.75;;;;;;;;;;5010937;28;20034;-72
2022/09/07 10:14:58;;;;;;;7.72;6.20;;;;;;;;;;5010404;28;20033;-70
2022/09/07 10:17:42;;;;;;;7.72;6.43;;;;;;;;;;5000174;28;20048;-71
2022/09/07 10:20:17;;;;;;;9.25;6.57;;;;;;;;;;5009664;28;20022;-72
2022/09/07 10:23:05;;;;;;;6.75;6.15;;;;;;;;;;5010901;28;20049;-71
2022/09/07 10:25:33;;;;;;;7.53;6.10;;;;;;;;;;5006082;28;20088;-71
2022/09/07 10:28:13;;;;;;;12.43;6.60;;;;;;;;;;5008519;28;20497;-72
2022/09/07 10:31:02;;;;;;;9.43;7.55;;;;;;;;;;5011129;28;20134;-72
2022/09/07 10:33:46;;;;;;;;;;;;;;;;;;4998052;28;20041;-73
2022/09/07 10:37:00;;;;;;;10.82;7.00;;;;;;;;;;5007760;28;19913;-73
2022/09/07 10:39:32;;;;;;;10.70;5.93;;;;;;;;;;5002536;28;20497;-72
2022/09/07 10:42:21;;;;;;;6.75;5.70;;;;;;;;;;5008242;28;20030;-71
2022/09/07 10:45:03;;;;;;;7.32;5.60;;;;;;;;;;5005433;28;20401;-71
2022/09/07 10:48:02;;;;;;;8.20;6.10;;;;;;;;;;5007326;28;20029;-71
2022/09/07 10:50:47;;;;;;;7.45;5.63;;;;;;;;;;5007591;28;20124;-71
2022/09/07 10:53:30;;;;;;;7.75;5.63;;;;;;;;;;5007323;28;20108;-72
2022/09/07 10:56:23;;;;;;;7.80;5.63;;;;;;;;;;5008922;28;20577;-72
2022/09/07 10:59:14;;;;;;;6.70;6.00;;;;;;;;;;5008054;28;20034;-72
2022/09/07 11:01:40;;;;;;;7.22;6.53;;;;;;;;;;5006197;28;20434;-72
2022/09/07 11:04:38;;;;;;;10.43;6.00;;;;;;;;;;5009080;28;20066;-72
2022/09/07 11:07:24;;;;;;;7.65;6.18;;;;;;;;;;5006025;28;20045;-72
2022/09/07 11:10:16;;;;;;;8.02;6.50;;;;;;;;;;5004530;28;20042;-72
2022/09/07 11:12:44;;;;;;;7.90;5.80;;;;;;;;;;4970333;28;20382;-73
2022/09/07 11:15:12;;;;;;;8.48;6.22;;;;;;;;;;5008708;28;20115;-71
2022/09/07 11:17:53;;;;;;;10.95;5.80;;;;;;;;;;5008603;28;20049;-74
2022/09/07 11:20:25;;;;;;;7.50;5.40;;;;;;;;;;5002322;28;20235;-72
2022/09/07 11:22:59;;;;;;;7.70;5.90;;;;;;;;;;5004410;28;20049;-72
2022/09/07 11:25:35;;;;;;;8.18;6.05;;;;;;;;;;5006580;28;20034;-73
2022/09/07 11:28:11;;;;;;;9.98;6.10;;;;;;;;;;5022671;28;20044;-73
2022/09/07 11:30:43;;;;;;;9.75;5.90;;;;;;;;;;5003325;28;20022;-72
2022/09/07 11:33:18;;;;;;;7.53;6.38;;;;;;;;;;5005286;28;20489;-71
2022/09/07 11:35:53;;;;;;;8.10;6.30;;;;;;;;;;5009613;28;20049;-72
2022/09/07 11:38:24;;;;;;;9.45;6.57;;;;;;;;;;5008565;28;20045;-72
2022/09/07 11:40:59;;;;;;;8.90;6.20;;;;;;;;;;5010193;28;20038;-72
2022/09/07 11:43:30;;;;;;;10.40;6.57;;;;;;;;;;5005439;28;20052;-72
2022/09/07 11:46:03;;;;;;;9.98;7.45;;;;;;;;;;5003460;28;20112;-73
2022/09/07 11:48:31;;;;;;;8.55;7.68;;;;;;;;;;5007797;28;20037;-72
2022/09/07 11:51:04;;;;;;;10.98;7.57;;;;;;;;;;5005746;28;20033;-72
2022/09/07 11:53:38;;;;;;;8.35;6.97;;;;;;;;;;5004064;28;20061;-72
2022/09/07 11:56:17;;;;;;;12.93;7.10;;;;;;;;;;5004496;28;20030;-72
2022/09/07 11:59:19;;;;;;;8.57;7.10;;;;;;;;;;5005043;28;20033;-72
2022/09/07 12:02:01;;;;;;;13.68;7.00;;;;;;;;;;5003313;28;20038;-71
2022/09/07 12:05:04;;;;;;;9.23;7.07;;;;;;;;;;5005120;28;20103;-71
2022/09/07 12:07:54;;;;;;;8.38;7.43;;;;;;;;;;4985334;28;20378;-71
2022/09/07 12:10:39;;;;;;;8.05;7.25;;;;;;;;;;5008018;28;20115;-72
2022/09/07 12:13:29;;;;;;;8.30;7.28;;;;;;;;;;5003361;28;20034;-72
2022/09/07 12:16:09;;;;;;;12.20;7.35;;;;;;;;;;5011500;28;20041;-72
2022/09/07 12:18:34;;;;;;;12.27;6.72;;;;;;;;;;5005788;28;20273;-72
2022/09/07 12:21:00;;;;;;;8.98;7.35;;;;;;;;;;5002859;28;20053;-71
2022/09/07 12:23:30;;;;;;;12.63;7.15;;;;;;;;;;5008639;28;20030;-71
2022/09/07 12:26:33;;;;;;;10.48;7.40;;;;;;;;;;5005423;28;20132;-71
2022/09/07 12:28:58;;;;;;;7.88;6.70;;;;;;;;;;5000745;28;20025;-72
2022/09/07 12:31:47;;;;;;;8.52;7.63;;;;;;;;;;5004827;28;20026;-72
2022/09/07 12:34:31;;;;;;;8.88;7.60;;;;;;;;;;5006128;28;20509;-71
2022/09/07 12:37:09;;;;;;;8.20;7.15;;;;;;;;;;5002979;28;20026;-70
2022/09/07 12:39:36;;;;;;;15.00;7.63;;;;;;;;;;5005069;28;20045;-70
2022/09/07 12:42:04;;;;;;;10.18;7.43;;;;;;;;;;5007805;28;20784;-71
2022/09/07 12:44:31;;;;;;;10.00;7.05;;;;;;;;;;5002215;28;20037;-70
2022/09/07 12:47:02;;;;;;;11.43;7.10;;;;;;;;;;5005630;28;20037;-70
2022/09/07 12:49:39;;;;;;;9.38;7.80;;;;;;;;;;5002744;28;20121;-70
2022/09/07 12:52:29;;;;;;;7.30;6.70;;;;;;;;;;5003022;28;20037;-71
2022/09/07 12:55:37;;;;;;;7.82;7.03;;;;;;;;;;5011097;28;20602;-70
2022/09/07 12:58:19;;;;;;;8.02;7.20;;;;;;;;;;4982955;28;20412;-69
2022/09/07 13:01:13;;;;;;;13.20;7.35;;;;;;;;;;5007828;28;20041;-71
2022/09/07 13:04:11;;;;;;;8.23;6.95;;;;;;;;;;5009835;28;20038;-70
2022/09/07 13:07:15;;;;;;;8.13;7.32;;;;;;;;;;5009279;28;20030;-71
2022/09/07 13:09:41;;;;;;;9.25;7.07;;;;;;;;;;5012330;28;20042;-69
2022/09/07 13:12:28;;;;;;;10.18;7.80;;;;;;;;;;5011102;28;20037;-71
2022/09/07 13:14:55;;;;;;;9.38;7.47;;;;;;;;;;5009034;28;20065;-72
2022/09/07 13:17:37;;;;;;;8.73;6.90;;;;;;;;;;5007823;28;20033;-72
2022/09/07 13:20:08;;;;;;;7.65;6.97;;;;;;;;;;5005592;28;20045;-70
2022/09/07 13:22:34;;;;;;;8.27;7.28;;;;;;;;;;5010808;28;20148;-72
2022/09/07 13:25:02;;;;;;;7.88;7.10;;;;;;;;;;5007070;28;20068;-72
2022/09/07 13:27:42;;;;;;;11.52;7.20;;;;;;;;;;5007978;28;20117;-71
2022/09/07 13:30:14;;;;;;;10.32;7.60;;;;;;;;;;5011975;28;20764;-71
2022/09/07 13:32:40;;;;;;;8.77;7.85;;;;;;;;;;5007711;28;20113;-71
2022/09/07 13:35:15;;;;;;;8.38;7.57;;;;;;;;;;5005091;28;20064;-71
2022/09/07 13:37:49;;;;;;;9.65;7.03;;;;;;;;;;5009869;28;20121;-71
2022/09/07 13:40:22;;;;;;;8.15;7.50;;;;;;;;;;5006750;28;20034;-71
2022/09/07 13:42:49;;;;;;;10.85;7.50;;;;;;;;;;5005844;28;20557;-71
2022/09/07 13:45:34;;;;;;;8.73;7.68;;;;;;;;;;5008498;28;20038;-71
2022/09/07 13:48:28;;;;;;;11.32;7.75;;;;;;;;;;5006213;28;20045;-71
2022/09/07 13:50:57;;;;;;;7.90;7.15;;;;;;;;;;4990045;28;20050;-72
2022/09/07 13:53:49;;;;;;;11.32;7.60;;;;;;;;;;5009051;28;20599;-70
2022/09/07 13:56:23;;;;;;;9.25;7.60;;;;;;;;;;5012498;28;20065;-69
2022/09/07 13:58:51;;;;;;;13.43;7.80;;;;;;;;;;5011977;28;20052;-72
2022/09/07 14:01:20;;;;;;;10.60;7.45;;;;;;;;;;5010212;28;20041;-70
2022/09/07 14:03:53;;;;;;;8.43;7.60;;;;;;;;;;5010795;28;20030;-71
2022/09/07 14:06:21;;;;;;;12.18;7.32;;;;;;;;;;5009827;28;20034;-71
2022/09/07 14:08:49;;;;;;;7.68;6.97;;;;;;;;;;5008869;28;20092;-68
2022/09/07 14:11:23;;;;;;;8.43;7.32;;;;;;;;;;5008892;28;20038;-69
2022/09/07 14:14:18;;;;;;;8.45;7.50;;;;;;;;;;5008930;28;20615;-71
2022/09/07 14:16:53;;;;;;;8.60;7.75;;;;;;;;;;5007101;28;20030;-69
2022/09/07 14:19:41;;;;;;;8.50;7.80;;;;;;;;;;5007596;28;20077;-71
2022/09/07 14:22:11;;;;;;;;;;;;;;;;;;5010274;28;20045;-71
2022/09/07 14:24:41;;;;;;;7.72;7.03;;;;;;;;;;5006453;28;20412;-72
2022/09/07 14:27:38;;;;;;;8.30;7.38;;;;;;;;;;5008021;28;20616;-72
2022/09/07 14:30:22;;;;;;;8.38;7.63;;;;;;;;;;4920693;29;20043;-70
2022/09/07 14:32:53;;;;;;;8.15;7.35;;;;;;;;;;4926798;29;20040;-72
2022/09/07 14:35:21;;;;;;;7.50;6.90;;;;;;;;;;4928564;29;20142;-69
2022/09/07 14:37:48;;;;;;;7.70;7.10;;;;;;;;;;4924889;29;20063;-68
2022/09/07 14:40:22;;;;;;;11.70;7.40;;;;;;;;;;4928668;29;20047;-71
2022/09/07 14:42:49;;;;;;;8.02;7.15;;;;;;;;;;4927757;29;20137;-72
2022/09/07 14:45:35;;;;;;;8.15;7.20;;;;;;;;;;4928639;29;20043;-69
2022/09/07 14:48:11;;;;;;;8.35;7.20;;;;;;;;;;4927716;29;20055;-70
2022/09/07 14:50:38;;;;;;;8.68;7.53;;;;;;;;;;4929638;29;20035;-71
2022/09/07 14:53:07;;;;;;;8.13;7.47;;;;;;;;;;4930474;29;20487;-72
2022/09/07 14:55:38;;;;;;;8.55;7.75;;;;;;;;;;4927348;29;20035;-72
2022/09/07 14:58:21;;;;;;;9.18;7.55;;;;;;;;;;4927669;29;20099;-72
2022/09/07 15:00:52;;;;;;;11.30;7.47;;;;;;;;;;4923015;29;20599;-70
2022/09/07 15:03:41;;;;;;;8.02;7.20;;;;;;;;;;4927308;29;20047;-72
2022/09/07 15:06:09;;;;;;;8.18;7.25;;;;;;;;;;4948046;28;20045;-72
2022/09/07 15:08:37;;;;;;;7.97;7.15;;;;;;;;;;5013573;28;20057;-73